createdAt,value
2019-03-10T00:00:29.056Z,70.70
2019-03-10T00:03:00.245Z,70.70
2019-03-10T00:05:29.443Z,70.60
2019-03-10T00:07:59.558Z,70.60
2019-03-10T00:10:28.761Z,70.40
2019-03-10T00:12:58.000Z,70.40
2019-03-10T00:15:27.316Z,70.30
2019-03-10T00:17:56.531Z,70.20
2019-03-10T00:20:25.769Z,70.30
2019-03-10T00:22:55.013Z,70.30
2019-03-10T00:25:24.216Z,70.40
2019-03-10T00:27:53.441Z,70.50
2019-03-10T00:30:22.807Z,70.40
2019-03-10T00:32:52.016Z,70.50
2019-03-10T00:35:21.250Z,70.70
2019-03-10T00:37:51.553Z,70.70
2019-03-10T00:40:38.588Z,70.70
2019-03-10T00:43:45.999Z,70.70
2019-03-10T00:46:51.844Z,70.70
2019-03-10T00:49:57.589Z,70.80
2019-03-10T00:52:35.530Z,71.00
2019-03-10T00:55:05.178Z,70.80
2019-03-10T00:57:34.421Z,70.80
2019-03-10T01:00:15.156Z,70.80
2019-03-10T01:02:44.433Z,71.00
2019-03-10T01:05:13.735Z,71.10
2019-03-10T01:07:43.113Z,71.20
2019-03-10T01:10:12.342Z,71.40
2019-03-10T01:12:41.727Z,71.50
2019-03-10T01:15:12.912Z,71.60
2019-03-10T01:17:42.388Z,71.80
2019-03-10T01:20:12.548Z,71.90
2019-03-10T01:22:41.759Z,72.20
2019-03-10T01:25:12.643Z,72.40
2019-03-10T01:27:41.844Z,72.50
2019-03-10T01:30:14.020Z,72.60
2019-03-10T01:33:02.764Z,72.80
2019-03-10T01:35:32.712Z,72.80
2019-03-10T01:38:01.934Z,72.90
2019-03-10T01:40:31.098Z,72.90
2019-03-10T01:43:00.292Z,72.90
2019-03-10T01:45:29.477Z,73.00
2019-03-10T01:47:59.386Z,72.90
2019-03-10T01:50:28.710Z,72.90
2019-03-10T01:52:57.878Z,72.50
2019-03-10T01:55:27.058Z,72.80
2019-03-10T01:57:56.228Z,72.50
2019-03-10T02:00:25.416Z,72.40
2019-03-10T02:02:54.589Z,72.40
2019-03-10T02:05:23.779Z,72.50
2019-03-10T02:07:52.969Z,72.50
2019-03-10T02:10:22.167Z,72.60
2019-03-10T02:12:51.645Z,72.50
2019-03-10T02:15:20.836Z,72.40
2019-03-10T02:17:50.009Z,72.10
2019-03-10T02:20:19.206Z,71.90
2019-03-10T02:22:48.372Z,71.60
2019-03-10T02:25:17.568Z,71.70
2019-03-10T02:27:46.743Z,71.50
2019-03-10T02:30:17.569Z,71.70
2019-03-10T02:32:46.799Z,71.70
2019-03-10T02:35:17.066Z,71.80
2019-03-10T02:37:46.257Z,71.60
2019-03-10T02:40:15.497Z,71.60
2019-03-10T02:42:44.752Z,71.70
2019-03-10T02:45:14.099Z,71.10
2019-03-10T02:47:43.290Z,71.20
2019-03-10T02:50:12.630Z,71.40
2019-03-10T02:52:41.818Z,71.90
2019-03-10T02:55:11.166Z,71.90
2019-03-10T02:57:40.620Z,71.70
2019-03-10T03:00:12.497Z,71.60
2019-03-10T03:02:41.763Z,71.50
2019-03-10T03:05:12.063Z,71.50
2019-03-10T03:07:41.435Z,71.30
2019-03-10T03:10:12.785Z,71.30
2019-03-10T03:12:42.046Z,71.20
2019-03-10T03:15:11.574Z,71.10
2019-03-10T03:17:40.743Z,71.30
2019-03-10T03:20:12.064Z,71.20
2019-03-10T03:22:41.246Z,71.50
2019-03-10T03:25:11.474Z,71.60
2019-03-10T03:27:41.612Z,71.50
2019-03-10T03:30:13.853Z,71.50
2019-03-10T03:32:43.030Z,71.60
2019-03-10T03:35:38.061Z,71.80
2019-03-10T03:38:07.250Z,72.10
2019-03-10T03:40:40.761Z,73.10
2019-03-10T03:43:11.014Z,74.40
2019-03-10T03:45:40.186Z,75.70
2019-03-10T03:48:09.379Z,76.40
2019-03-10T03:50:38.569Z,77.20
2019-03-10T03:53:08.066Z,77.70
2019-03-10T03:55:37.242Z,78.50
2019-03-10T03:58:06.414Z,78.80
2019-03-10T04:00:35.600Z,79.10
2019-03-10T04:03:04.826Z,79.50
2019-03-10T04:05:34.040Z,80.30
2019-03-10T04:08:03.259Z,81.00
2019-03-10T04:10:32.433Z,81.50
2019-03-10T04:13:01.625Z,82.20
2019-03-10T04:15:30.797Z,83.00
2019-03-10T04:18:00.958Z,83.50
2019-03-10T04:20:30.131Z,84.10
2019-03-10T04:22:59.321Z,84.70
2019-03-10T04:25:28.562Z,85.10
2019-03-10T04:27:57.748Z,85.80
2019-03-10T04:30:26.947Z,86.10
2019-03-10T04:32:56.119Z,86.10
2019-03-10T04:35:25.311Z,86.20
2019-03-10T04:37:54.476Z,86.30
2019-03-10T04:40:23.664Z,86.70
2019-03-10T04:42:52.857Z,87.10
2019-03-10T04:45:22.029Z,87.20
2019-03-10T04:47:51.217Z,87.50
2019-03-10T04:50:20.404Z,87.90
2019-03-10T04:52:49.869Z,88.10
2019-03-10T04:55:38.741Z,88.20
2019-03-10T04:58:12.513Z,88.10
2019-03-10T05:00:43.319Z,88.10
2019-03-10T05:03:12.777Z,88.10
2019-03-10T05:05:41.948Z,88.10
2019-03-10T05:08:11.140Z,88.00
2019-03-10T05:10:40.312Z,87.80
2019-03-10T05:13:09.501Z,88.50
2019-03-10T05:15:38.675Z,88.90
2019-03-10T05:18:07.836Z,89.50
2019-03-10T05:20:37.022Z,90.00
2019-03-10T05:23:31.851Z,90.70
2019-03-10T05:26:01.109Z,91.00
2019-03-10T05:28:32.212Z,91.80
2019-03-10T05:31:01.574Z,92.60
2019-03-10T05:33:30.732Z,93.10
2019-03-10T05:35:59.925Z,93.30
2019-03-10T05:38:29.136Z,92.50
2019-03-10T05:40:58.352Z,92.30
2019-03-10T05:43:27.518Z,92.60
2019-03-10T05:45:56.695Z,92.90
2019-03-10T05:48:25.865Z,93.10
2019-03-10T05:50:55.035Z,92.80
2019-03-10T05:53:24.220Z,92.50
2019-03-10T05:55:53.407Z,92.40
2019-03-10T05:58:22.669Z,92.30
2019-03-10T06:00:52.812Z,92.00
2019-03-10T06:03:21.985Z,92.00
2019-03-10T06:05:51.158Z,91.80
2019-03-10T06:08:20.331Z,91.60
2019-03-10T06:10:49.513Z,91.50
2019-03-10T06:13:18.695Z,91.30
2019-03-10T06:15:48.126Z,91.30
2019-03-10T06:18:17.311Z,91.30
2019-03-10T06:20:46.726Z,91.30
2019-03-10T06:23:15.908Z,91.40
2019-03-10T06:25:45.080Z,91.50
2019-03-10T06:28:14.248Z,91.60
2019-03-10T06:30:43.732Z,91.60
2019-03-10T06:33:13.240Z,91.50
2019-03-10T06:35:42.416Z,91.50
2019-03-10T06:38:11.609Z,91.20
2019-03-10T06:40:40.819Z,91.10
2019-03-10T06:43:09.968Z,91.20
2019-03-10T06:45:39.173Z,91.60
2019-03-10T06:48:08.332Z,91.80
2019-03-10T06:50:37.522Z,92.10
2019-03-10T06:53:07.752Z,92.20
2019-03-10T06:55:36.916Z,92.40
2019-03-10T06:58:06.099Z,92.50
2019-03-10T07:00:35.256Z,92.70
2019-03-10T07:03:04.445Z,92.70
2019-03-10T07:05:33.619Z,92.80
2019-03-10T07:08:03.059Z,93.00
2019-03-10T07:10:32.228Z,93.00
2019-03-10T07:13:01.389Z,93.00
2019-03-10T07:15:30.568Z,93.00
2019-03-10T07:17:59.731Z,93.00
2019-03-10T07:20:28.917Z,92.80
2019-03-10T07:22:58.093Z,92.70
2019-03-10T07:25:27.256Z,92.70
2019-03-10T07:28:08.397Z,92.80
2019-03-10T07:30:54.476Z,92.80
2019-03-10T07:33:25.280Z,93.00
2019-03-10T07:35:56.099Z,93.20
2019-03-10T07:38:33.033Z,93.20
2019-03-10T07:41:09.688Z,93.10
2019-03-10T07:43:40.497Z,93.00
2019-03-10T07:46:11.628Z,92.80
2019-03-10T07:48:45.149Z,92.90
2019-03-10T07:51:21.921Z,93.10
2019-03-10T07:53:52.745Z,93.00
2019-03-10T07:56:29.736Z,92.60
2019-03-10T07:59:00.566Z,92.60
2019-03-10T08:01:34.323Z,92.70
2019-03-10T08:04:17.153Z,92.60
2019-03-10T08:06:47.960Z,92.20
2019-03-10T08:09:18.779Z,91.80
2019-03-10T08:11:49.581Z,91.80
2019-03-10T08:14:26.520Z,91.30
2019-03-10T08:17:03.493Z,91.30
2019-03-10T08:19:40.264Z,90.80
2019-03-10T08:22:26.350Z,90.40
2019-03-10T08:24:57.487Z,90.10
2019-03-10T08:27:44.504Z,89.80
2019-03-10T08:30:15.336Z,89.10
2019-03-10T08:32:55.052Z,89.10
2019-03-10T08:35:37.943Z,89.50
2019-03-10T08:38:14.693Z,89.60
2019-03-10T08:40:54.118Z,89.60
2019-03-10T08:43:33.857Z,89.70
2019-03-10T08:46:11.156Z,89.70
2019-03-10T08:48:41.999Z,89.90
2019-03-10T08:51:15.509Z,89.80
2019-03-10T08:53:46.329Z,89.80
2019-03-10T08:56:29.217Z,90.10
2019-03-10T08:59:00.037Z,90.20
2019-03-10T09:01:37.206Z,90.60
2019-03-10T09:04:08.056Z,90.10
2019-03-10T09:06:38.888Z,90.50
2019-03-10T09:09:18.712Z,90.50
2019-03-10T09:11:49.845Z,90.40
2019-03-10T09:14:32.832Z,90.50
2019-03-10T09:17:03.652Z,90.00
2019-03-10T09:19:50.677Z,90.30
2019-03-10T09:22:27.815Z,90.80
2019-03-10T09:25:13.629Z,91.70
2019-03-10T09:27:56.564Z,92.00
2019-03-10T09:30:33.340Z,92.10
2019-03-10T09:33:09.943Z,91.50
2019-03-10T09:35:57.304Z,91.40
2019-03-10T09:38:28.113Z,90.60
2019-03-10T09:41:01.605Z,90.40
2019-03-10T09:43:44.455Z,90.30
2019-03-10T09:46:15.280Z,90.30
2019-03-10T09:49:04.035Z,90.20
2019-03-10T09:51:34.853Z,90.20
2019-03-10T09:54:24.141Z,90.20
2019-03-10T09:56:54.960Z,90.90
2019-03-10T09:59:26.135Z,91.30
2019-03-10T10:02:06.061Z,91.70
2019-03-10T10:04:39.768Z,90.70
2019-03-10T10:07:10.613Z,91.00
2019-03-10T10:09:56.746Z,90.80
2019-03-10T10:12:27.564Z,90.90
2019-03-10T10:15:01.060Z,90.50
2019-03-10T10:17:31.890Z,89.70
2019-03-10T10:20:02.696Z,89.90
2019-03-10T10:22:33.520Z,88.60
2019-03-10T10:25:07.493Z,88.40
2019-03-10T10:27:54.714Z,87.70
2019-03-10T10:30:37.757Z,87.40
2019-03-10T10:33:14.751Z,87.00
2019-03-10T10:35:54.729Z,86.60
2019-03-10T10:38:28.369Z,85.50
2019-03-10T10:41:15.562Z,85.60
2019-03-10T10:43:58.672Z,85.80
2019-03-10T10:46:38.392Z,85.40
2019-03-10T10:49:09.520Z,84.90
2019-03-10T10:51:56.815Z,84.60
2019-03-10T10:54:45.699Z,83.80
2019-03-10T10:57:19.202Z,82.30
2019-03-10T11:00:06.249Z,81.80
2019-03-10T11:02:38.133Z,80.40
2019-03-10T11:05:13.026Z,80.20
2019-03-10T11:08:00.351Z,79.50
2019-03-10T11:10:31.168Z,79.30
2019-03-10T11:13:02.040Z,79.50
2019-03-10T11:15:33.476Z,78.40
2019-03-10T11:18:09.388Z,78.80
2019-03-10T11:20:36.800Z,77.70
2019-03-10T11:23:17.037Z,77.30
2019-03-10T11:25:48.184Z,77.30
2019-03-10T11:28:21.711Z,78.90
2019-03-10T11:30:52.537Z,79.00
2019-03-10T11:33:32.340Z,78.10
2019-03-10T11:36:18.169Z,77.70
2019-03-10T11:39:05.273Z,74.60
2019-03-10T11:41:42.211Z,74.30
2019-03-10T11:44:29.409Z,74.00
2019-03-10T11:47:03.164Z,74.10
2019-03-10T11:49:39.681Z,74.40
2019-03-10T11:52:13.185Z,72.80
2019-03-10T11:54:43.991Z,72.70
2019-03-10T11:57:20.834Z,71.90
2019-03-10T11:59:51.641Z,74.20
2019-03-10T12:02:25.202Z,78.20
2019-03-10T12:05:07.785Z,81.40
2019-03-10T12:07:41.485Z,81.80
2019-03-10T12:10:10.648Z,81.20
2019-03-10T12:12:39.841Z,79.60
2019-03-10T12:15:12.350Z,79.20
2019-03-10T12:17:41.530Z,80.20
2019-03-10T12:20:13.216Z,79.80
2019-03-10T12:22:42.484Z,80.00
2019-03-10T12:25:13.652Z,77.80
2019-03-10T12:27:42.829Z,75.50
2019-03-10T12:30:14.772Z,74.50
2019-03-10T12:32:43.932Z,73.80
2019-03-10T12:35:13.389Z,74.50
2019-03-10T12:37:42.591Z,73.20
2019-03-10T12:40:12.700Z,71.90
2019-03-10T12:42:41.887Z,70.50
2019-03-10T12:45:11.691Z,70.70
2019-03-10T12:47:40.884Z,69.70
2019-03-10T12:50:14.666Z,71.00
2019-03-10T12:52:44.113Z,70.50
2019-03-10T12:55:13.295Z,71.20
2019-03-10T12:57:42.469Z,71.20
2019-03-10T13:00:16.500Z,70.90
2019-03-10T13:02:45.688Z,68.00
2019-03-10T13:05:15.021Z,67.60
2019-03-10T13:07:44.205Z,65.90
2019-03-10T13:10:13.377Z,65.50
2019-03-10T13:12:42.565Z,65.00
2019-03-10T13:15:12.489Z,64.40
2019-03-10T13:17:41.653Z,64.10
2019-03-10T13:20:11.884Z,64.30
2019-03-10T13:22:41.071Z,64.20
2019-03-10T13:25:12.115Z,62.40
2019-03-10T13:27:41.277Z,62.40
2019-03-10T13:30:15.254Z,62.90
2019-03-10T13:32:44.910Z,60.70
2019-03-10T13:35:14.471Z,60.40
2019-03-10T13:37:43.697Z,58.90
2019-03-10T13:40:14.641Z,60.00
2019-03-10T13:42:43.818Z,56.30
2019-03-10T13:45:15.815Z,56.30
2019-03-10T13:47:44.978Z,55.70
2019-03-10T13:50:15.388Z,55.90
2019-03-10T13:52:44.572Z,56.90
2019-03-10T13:55:14.993Z,57.60
2019-03-10T13:57:44.172Z,57.70
2019-03-10T14:00:19.064Z,57.30
2019-03-10T14:02:48.261Z,57.80
2019-03-10T14:05:17.429Z,57.10
2019-03-10T14:07:46.607Z,56.90
2019-03-10T14:10:15.849Z,57.00
2019-03-10T14:12:45.028Z,56.10
2019-03-10T14:15:15.664Z,56.20
2019-03-10T14:17:44.833Z,56.40
2019-03-10T14:20:15.185Z,57.00
2019-03-10T14:22:44.353Z,57.70
2019-03-10T14:25:14.696Z,57.70
2019-03-10T14:27:45.256Z,57.90
2019-03-10T14:30:18.321Z,58.30
2019-03-10T14:32:47.574Z,58.40
2019-03-10T14:35:16.808Z,58.40
2019-03-10T14:37:45.989Z,58.50
2019-03-10T14:40:17.001Z,58.80
2019-03-10T14:42:46.472Z,57.50
2019-03-10T14:45:19.293Z,57.90
2019-03-10T14:47:49.014Z,58.10
2019-03-10T14:50:19.217Z,58.40
2019-03-10T14:52:48.386Z,58.00
2019-03-10T14:55:21.971Z,57.70
2019-03-10T14:57:51.200Z,56.60
2019-03-10T15:00:23.556Z,56.40
2019-03-10T15:02:52.738Z,55.70
2019-03-10T15:05:21.904Z,54.60
2019-03-10T15:07:51.103Z,54.10
2019-03-10T15:10:20.843Z,54.30
2019-03-10T15:12:50.009Z,55.20
2019-03-10T15:15:22.774Z,56.00
2019-03-10T15:17:50.796Z,55.80
2019-03-10T15:20:21.655Z,54.90
2019-03-10T15:22:51.096Z,54.60
2019-03-10T15:25:21.299Z,55.40
2019-03-10T15:27:50.608Z,53.90
2019-03-10T15:30:25.121Z,54.40
2019-03-10T15:32:54.837Z,54.00
2019-03-10T15:35:23.996Z,53.90
2019-03-10T15:37:53.221Z,53.20
2019-03-10T15:40:22.428Z,53.10
2019-03-10T15:42:52.686Z,53.30
2019-03-10T15:45:21.865Z,52.90
2019-03-10T15:47:51.045Z,53.50
2019-03-10T15:50:28.647Z,53.50
2019-03-10T15:52:57.914Z,53.80
2019-03-10T15:55:27.084Z,53.40
2019-03-10T15:57:56.273Z,53.70
2019-03-10T16:00:26.700Z,54.10
2019-03-10T16:02:55.953Z,53.80
2019-03-10T16:05:25.117Z,53.70
2019-03-10T16:07:54.306Z,54.00
2019-03-10T16:10:23.482Z,53.50
2019-03-10T16:12:53.607Z,53.20
2019-03-10T16:15:27.577Z,53.80
2019-03-10T16:17:56.775Z,54.30
2019-03-10T16:20:25.929Z,54.70
2019-03-10T16:22:55.607Z,54.60
2019-03-10T16:25:25.936Z,54.50
2019-03-10T16:27:55.123Z,54.50
2019-03-10T16:30:25.777Z,53.90
2019-03-10T16:32:55.128Z,53.80
2019-03-10T16:35:24.300Z,53.80
2019-03-10T16:37:53.477Z,53.90
2019-03-10T16:40:22.724Z,53.70
2019-03-10T16:42:51.906Z,53.60
2019-03-10T16:45:22.884Z,53.30
2019-03-10T16:47:52.146Z,52.10
2019-03-10T16:50:22.568Z,52.70
2019-03-10T16:52:51.762Z,52.20
2019-03-10T16:55:21.011Z,51.50
2019-03-10T16:57:50.204Z,52.10
2019-03-10T17:00:22.685Z,52.20
2019-03-10T17:02:52.343Z,51.30
2019-03-10T17:05:23.543Z,52.00
2019-03-10T17:07:52.893Z,52.20
2019-03-10T17:10:26.187Z,52.20
2019-03-10T17:12:55.454Z,52.80
2019-03-10T17:15:25.787Z,53.10
2019-03-10T17:17:54.974Z,53.30
2019-03-10T17:20:24.159Z,53.80
2019-03-10T17:22:53.358Z,54.10
2019-03-10T17:25:22.527Z,54.40
2019-03-10T17:27:51.693Z,54.80
2019-03-10T17:30:24.610Z,55.10
2019-03-10T17:32:54.083Z,55.40
2019-03-10T17:35:23.270Z,55.10
2019-03-10T17:37:52.438Z,55.00
2019-03-10T17:40:22.864Z,54.70
2019-03-10T17:42:53.454Z,54.90
2019-03-10T17:45:27.104Z,55.10
2019-03-10T17:47:56.277Z,55.90
2019-03-10T17:50:25.445Z,56.00
2019-03-10T17:52:54.631Z,58.40
2019-03-10T17:55:25.287Z,62.60
2019-03-10T17:57:54.457Z,65.20
2019-03-10T18:00:28.194Z,70.90
2019-03-10T18:02:57.381Z,73.30
2019-03-10T18:05:26.542Z,75.00
2019-03-10T18:07:55.717Z,77.00
2019-03-10T18:10:24.901Z,78.30
2019-03-10T18:12:54.153Z,81.50
2019-03-10T18:15:23.404Z,83.60
2019-03-10T18:17:52.585Z,84.50
2019-03-10T18:20:24.758Z,84.40
2019-03-10T18:22:53.940Z,85.10
2019-03-10T18:25:23.102Z,83.40
2019-03-10T18:27:52.276Z,83.30
2019-03-10T18:30:22.584Z,83.50
2019-03-10T18:32:51.779Z,83.10
2019-03-10T18:35:20.985Z,82.60
2019-03-10T18:37:50.474Z,82.00
2019-03-10T18:40:23.436Z,81.70
2019-03-10T18:42:52.616Z,82.10
2019-03-10T18:45:21.865Z,81.50
2019-03-10T18:47:51.033Z,81.50
2019-03-10T18:50:25.329Z,80.90
2019-03-10T18:52:54.501Z,80.60
2019-03-10T18:55:23.670Z,79.80
2019-03-10T18:57:53.187Z,79.40
2019-03-10T19:00:24.657Z,79.10
2019-03-10T19:02:53.903Z,78.40
2019-03-10T19:05:23.143Z,77.70
2019-03-10T19:07:52.317Z,77.80
2019-03-10T19:10:21.838Z,78.00
2019-03-10T19:12:51.003Z,76.40
2019-03-10T19:15:27.825Z,76.70
2019-03-10T19:17:56.992Z,77.00
2019-03-10T19:20:26.172Z,77.00
2019-03-10T19:22:55.619Z,76.90
2019-03-10T19:25:24.786Z,76.40
2019-03-10T19:27:53.960Z,76.30
2019-03-10T19:30:23.989Z,76.40
2019-03-10T19:32:53.168Z,76.60
2019-03-10T19:35:22.348Z,76.90
2019-03-10T19:37:51.525Z,77.00
2019-03-10T19:40:22.917Z,77.60
2019-03-10T19:42:52.088Z,77.90
2019-03-10T19:45:22.526Z,78.40
2019-03-10T19:47:51.715Z,80.40
2019-03-10T19:50:27.616Z,82.20
2019-03-10T19:52:57.309Z,85.50
2019-03-10T19:55:26.545Z,87.00
2019-03-10T19:57:55.722Z,86.20
2019-03-10T20:00:24.896Z,85.70
2019-03-10T20:02:54.065Z,86.90
2019-03-10T20:05:23.261Z,87.10
2019-03-10T20:07:53.312Z,85.10
2019-03-10T20:10:24.213Z,85.60
2019-03-10T20:12:53.381Z,84.70
2019-03-10T20:15:23.600Z,84.50
2019-03-10T20:17:52.770Z,84.70
2019-03-10T20:20:25.578Z,83.90
2019-03-10T20:22:54.761Z,83.20
2019-03-10T20:25:24.913Z,83.60
2019-03-10T20:27:54.077Z,83.20
2019-03-10T20:30:25.175Z,83.00
2019-03-10T20:32:54.348Z,82.70
2019-03-10T20:35:24.505Z,82.60
2019-03-10T20:37:53.660Z,82.40
2019-03-10T20:40:25.371Z,82.50
2019-03-10T20:42:54.883Z,81.80
2019-03-10T20:45:24.757Z,82.50
2019-03-10T20:47:56.267Z,81.90
2019-03-10T20:50:25.354Z,82.00
2019-03-10T20:52:54.963Z,81.80
2019-03-10T20:55:24.159Z,81.70
2019-03-10T20:57:53.393Z,82.40
2019-03-10T21:00:24.121Z,81.90
2019-03-10T21:02:53.472Z,82.00
2019-03-10T21:05:23.715Z,82.30
2019-03-10T21:07:52.918Z,82.30
2019-03-10T21:10:28.127Z,81.80
2019-03-10T21:12:57.312Z,81.70
2019-03-10T21:15:26.882Z,79.10
2019-03-10T21:17:56.469Z,78.00
2019-03-10T21:20:26.390Z,78.00
2019-03-10T21:22:55.568Z,77.90
2019-03-10T21:25:29.944Z,77.70
2019-03-10T21:27:59.144Z,78.20
2019-03-10T21:30:33.453Z,78.40
2019-03-10T21:33:02.619Z,78.70
2019-03-10T21:35:33.371Z,79.20
2019-03-10T21:38:02.986Z,79.30
2019-03-10T21:40:33.494Z,79.10
2019-03-10T21:43:02.671Z,79.50
2019-03-10T21:45:31.863Z,79.80
2019-03-10T21:48:01.030Z,79.90
2019-03-10T21:50:30.293Z,80.20
2019-03-10T21:52:59.700Z,80.40
2019-03-10T21:55:28.880Z,80.80
2019-03-10T21:57:58.236Z,80.70
2019-03-10T22:00:27.457Z,80.70
2019-03-10T22:02:56.648Z,80.70
2019-03-10T22:05:25.804Z,81.50
2019-03-10T22:07:54.981Z,81.70
2019-03-10T22:10:27.622Z,81.10
2019-03-10T22:12:55.008Z,83.10
2019-03-10T22:15:24.185Z,81.90
2019-03-10T22:17:53.366Z,81.80
2019-03-10T22:20:22.544Z,81.70
2019-03-10T22:22:51.753Z,80.50
2019-03-10T22:25:20.916Z,80.60
2019-03-10T22:27:50.093Z,80.60
2019-03-10T22:30:20.896Z,80.90
2019-03-10T22:32:50.092Z,81.10
2019-03-10T22:35:19.253Z,81.40
2019-03-10T22:37:48.428Z,81.90
2019-03-10T22:40:17.980Z,81.80
2019-03-10T22:42:47.146Z,81.60
2019-03-10T22:45:19.861Z,81.60
2019-03-10T22:47:49.026Z,80.90
2019-03-10T22:50:18.563Z,81.30
2019-03-10T22:52:48.624Z,81.40
2019-03-10T22:55:17.805Z,81.40
2019-03-10T22:57:46.988Z,81.40
2019-03-10T23:00:30.932Z,80.90
2019-03-10T23:03:01.730Z,81.10
2019-03-10T23:05:30.913Z,80.80
2019-03-10T23:08:00.089Z,80.50
2019-03-10T23:10:29.252Z,80.30
2019-03-10T23:12:58.432Z,80.20
2019-03-10T23:15:27.610Z,80.40
2019-03-10T23:17:56.785Z,80.50
2019-03-10T23:20:25.950Z,80.50
2019-03-10T23:22:55.134Z,80.40
2019-03-10T23:25:24.292Z,80.50
2019-03-10T23:27:53.474Z,80.00
2019-03-10T23:30:22.629Z,80.00
2019-03-10T23:32:51.809Z,79.90
2019-03-10T23:35:20.965Z,79.80
2019-03-10T23:37:50.152Z,79.30
2019-03-10T23:40:22.346Z,79.50
2019-03-10T23:42:51.511Z,79.50
2019-03-10T23:45:20.759Z,79.80
2019-03-10T23:47:49.917Z,80.10
2019-03-10T23:50:19.339Z,80.00
2019-03-10T23:52:48.574Z,80.00
2019-03-10T23:55:18.896Z,79.90
2019-03-10T23:57:48.125Z,79.70
